sensor_id;sensor_type;location;lat;lon;timestamp;temperature;humidity
62259;DHT22;48241;48.824;10.102;2022-10-16T00:01:41;15.90;99.90
62259;DHT22;48241;48.824;10.102;2022-10-16T00:04:06;16.10;99.90
62259;DHT22;48241;48.824;10.102;2022-10-16T00:06:32;16.10;99.90
62259;DHT22;48241;48.824;10.102;2022-10-16T00:08:58;16.20;99.90
62259;DHT22;48241;48.824;10.102;2022-10-16T00:11:33;16.00;99.90
62259;DHT22;48241;48.824;10.102;2022-10-16T00:14:00;16.00;99.90
62259;DHT22;48241;48.824;10.102;2022-10-16T00:16:27;16.20;99.90
62259;DHT22;48241;48.824;10.102;2022-10-16T00:18:53;15.90;99.90
62259;DHT22;48241;48.824;10.102;2022-10-16T00:21:21;15.90;99.90
62259;DHT22;48241;48.824;10.102;2022-10-16T00:23:53;15.70;99.90
62259;DHT22;48241;48.824;10.102;2022-10-16T00:26:20;15.80;99.90
62259;DHT22;48241;48.824;10.102;2022-10-16T00:28:47;15.80;99.90
62259;DHT22;48241;48.824;10.102;2022-10-16T00:31:14;15.90;99.90
62259;DHT22;48241;48.824;10.102;2022-10-16T00:33:40;16.10;99.90
62259;DHT22;48241;48.824;10.102;2022-10-16T00:36:07;16.10;99.90
62259;DHT22;48241;48.824;10.102;2022-10-16T00:38:33;16.00;99.90
62259;DHT22;48241;48.824;10.102;2022-10-16T00:40:59;16.00;99.90
62259;DHT22;48241;48.824;10.102;2022-10-16T00:43:41;15.90;99.90
62259;DHT22;48241;48.824;10.102;2022-10-16T00:46:15;15.90;99.90
62259;DHT22;48241;48.824;10.102;2022-10-16T00:48:45;15.90;99.90
62259;DHT22;48241;48.824;10.102;2022-10-16T00:51:12;16.00;99.90
62259;DHT22;48241;48.824;10.102;2022-10-16T00:53:37;16.00;99.90
62259;DHT22;48241;48.824;10.102;2022-10-16T00:56:03;15.90;99.90
62259;DHT22;48241;48.824;10.102;2022-10-16T00:58:29;16.10;99.90
62259;DHT22;48241;48.824;10.102;2022-10-16T01:00:55;16.30;99.50
62259;DHT22;48241;48.824;10.102;2022-10-16T01:03:29;16.40;99.40
62259;DHT22;48241;48.824;10.102;2022-10-16T01:06:20;16.30;99.20
62259;DHT22;48241;48.824;10.102;2022-10-16T01:14:27;16.20;99.70
62259;DHT22;48241;48.824;10.102;2022-10-16T01:17:20;16.30;99.50
62259;DHT22;48241;48.824;10.102;2022-10-16T01:25:30;16.10;99.90
62259;DHT22;48241;48.824;10.102;2022-10-16T01:27:57;16.20;99.40
62259;DHT22;48241;48.824;10.102;2022-10-16T01:30:28;16.20;99.70
62259;DHT22;48241;48.824;10.102;2022-10-16T01:33:10;16.20;99.70
62259;DHT22;48241;48.824;10.102;2022-10-16T01:35:46;16.20;99.90
62259;DHT22;48241;48.824;10.102;2022-10-16T01:38:21;16.00;99.90
62259;DHT22;48241;48.824;10.102;2022-10-16T01:40:58;16.00;99.90
62259;DHT22;48241;48.824;10.102;2022-10-16T01:43:30;16.10;99.90
62259;DHT22;48241;48.824;10.102;2022-10-16T01:45:57;15.90;99.90
62259;DHT22;48241;48.824;10.102;2022-10-16T01:48:24;15.80;99.90
62259;DHT22;48241;48.824;10.102;2022-10-16T01:51:28;15.70;99.90
62259;DHT22;48241;48.824;10.102;2022-10-16T01:53:57;15.70;99.90
62259;DHT22;48241;48.824;10.102;2022-10-16T01:56:25;15.60;99.90
62259;DHT22;48241;48.824;10.102;2022-10-16T01:59:07;15.50;99.90
62259;DHT22;48241;48.824;10.102;2022-10-16T02:01:38;15.40;99.90
62259;DHT22;48241;48.824;10.102;2022-10-16T02:04:13;15.50;99.90
62259;DHT22;48241;48.824;10.102;2022-10-16T02:06:40;15.40;99.90
62259;DHT22;48241;48.824;10.102;2022-10-16T02:09:05;15.40;99.90
62259;DHT22;48241;48.824;10.102;2022-10-16T02:11:31;15.60;99.90
62259;DHT22;48241;48.824;10.102;2022-10-16T02:14:04;15.60;99.90
62259;DHT22;48241;48.824;10.102;2022-10-16T02:16:40;15.70;99.90
62259;DHT22;48241;48.824;10.102;2022-10-16T02:19:07;15.70;99.90
62259;DHT22;48241;48.824;10.102;2022-10-16T02:26:52;15.60;99.90
62259;DHT22;48241;48.824;10.102;2022-10-16T02:29:25;15.70;99.90
62259;DHT22;48241;48.824;10.102;2022-10-16T02:31:55;15.50;99.90
62259;DHT22;48241;48.824;10.102;2022-10-16T02:34:22;15.60;99.90
62259;DHT22;48241;48.824;10.102;2022-10-16T02:36:50;15.50;99.90
62259;DHT22;48241;48.824;10.102;2022-10-16T02:39:17;15.70;99.90
62259;DHT22;48241;48.824;10.102;2022-10-16T02:41:42;15.60;99.90
62259;DHT22;48241;48.824;10.102;2022-10-16T02:44:08;15.80;99.90
62259;DHT22;48241;48.824;10.102;2022-10-16T02:46:34;15.60;99.90
62259;DHT22;48241;48.824;10.102;2022-10-16T02:48:59;15.70;99.90
62259;DHT22;48241;48.824;10.102;2022-10-16T02:51:25;15.60;99.90
62259;DHT22;48241;48.824;10.102;2022-10-16T02:53:51;15.50;99.90
62259;DHT22;48241;48.824;10.102;2022-10-16T02:56:16;15.40;99.90
62259;DHT22;48241;48.824;10.102;2022-10-16T02:58:42;15.50;99.90
62259;DHT22;48241;48.824;10.102;2022-10-16T03:01:07;15.30;99.90
62259;DHT22;48241;48.824;10.102;2022-10-16T03:03:33;15.30;99.90
62259;DHT22;48241;48.824;10.102;2022-10-16T03:05:59;15.50;99.90
62259;DHT22;48241;48.824;10.102;2022-10-16T03:08:24;15.50;99.90
62259;DHT22;48241;48.824;10.102;2022-10-16T03:10:51;15.70;99.90
62259;DHT22;48241;48.824;10.102;2022-10-16T03:13:16;15.80;99.90
62259;DHT22;48241;48.824;10.102;2022-10-16T03:15:43;16.00;99.60
62259;DHT22;48241;48.824;10.102;2022-10-16T03:18:08;16.00;99.90
62259;DHT22;48241;48.824;10.102;2022-10-16T03:20:34;16.10;99.40
62259;DHT22;48241;48.824;10.102;2022-10-16T03:22:59;16.00;99.90
62259;DHT22;48241;48.824;10.102;2022-10-16T03:25:25;16.10;99.70
62259;DHT22;48241;48.824;10.102;2022-10-16T03:27:50;16.10;99.90
62259;DHT22;48241;48.824;10.102;2022-10-16T03:30:16;16.00;99.90
62259;DHT22;48241;48.824;10.102;2022-10-16T03:32:43;16.00;99.90
62259;DHT22;48241;48.824;10.102;2022-10-16T03:35:09;15.90;99.90
62259;DHT22;48241;48.824;10.102;2022-10-16T03:37:34;15.80;99.90
62259;DHT22;48241;48.824;10.102;2022-10-16T03:40:00;15.60;99.90
62259;DHT22;48241;48.824;10.102;2022-10-16T03:42:26;15.70;99.90
62259;DHT22;48241;48.824;10.102;2022-10-16T03:44:51;15.70;99.90
62259;DHT22;48241;48.824;10.102;2022-10-16T03:47:17;15.70;99.90
62259;DHT22;48241;48.824;10.102;2022-10-16T03:49:47;15.70;99.90
62259;DHT22;48241;48.824;10.102;2022-10-16T03:52:13;15.60;99.90
62259;DHT22;48241;48.824;10.102;2022-10-16T03:54:38;15.60;99.90
62259;DHT22;48241;48.824;10.102;2022-10-16T03:57:04;15.80;99.90
62259;DHT22;48241;48.824;10.102;2022-10-16T03:59:30;15.80;99.90
62259;DHT22;48241;48.824;10.102;2022-10-16T04:01:55;15.70;99.90
62259;DHT22;48241;48.824;10.102;2022-10-16T04:04:21;15.90;99.90
62259;DHT22;48241;48.824;10.102;2022-10-16T04:06:47;15.90;99.90
62259;DHT22;48241;48.824;10.102;2022-10-16T04:09:12;15.90;99.60
62259;DHT22;48241;48.824;10.102;2022-10-16T04:11:38;16.00;99.20
62259;DHT22;48241;48.824;10.102;2022-10-16T04:14:04;16.00;99.10
62259;DHT22;48241;48.824;10.102;2022-10-16T04:16:30;16.10;99.00
62259;DHT22;48241;48.824;10.102;2022-10-16T04:18:55;15.90;99.50
62259;DHT22;48241;48.824;10.102;2022-10-16T04:21:21;15.90;99.30
62259;DHT22;48241;48.824;10.102;2022-10-16T04:23:47;15.80;99.60
62259;DHT22;48241;48.824;10.102;2022-10-16T04:26:13;15.80;99.40
62259;DHT22;48241;48.824;10.102;2022-10-16T04:28:39;15.80;99.30
62259;DHT22;48241;48.824;10.102;2022-10-16T04:31:05;15.90;99.40
62259;DHT22;48241;48.824;10.102;2022-10-16T04:33:31;15.90;99.00
62259;DHT22;48241;48.824;10.102;2022-10-16T04:36:01;15.80;99.30
62259;DHT22;48241;48.824;10.102;2022-10-16T04:38:27;15.80;99.40
62259;DHT22;48241;48.824;10.102;2022-10-16T04:40:53;15.80;99.30
62259;DHT22;48241;48.824;10.102;2022-10-16T04:43:19;15.80;99.70
62259;DHT22;48241;48.824;10.102;2022-10-16T04:45:45;15.60;99.90
62259;DHT22;48241;48.824;10.102;2022-10-16T04:48:10;15.60;99.90
62259;DHT22;48241;48.824;10.102;2022-10-16T04:50:36;15.70;99.60
62259;DHT22;48241;48.824;10.102;2022-10-16T04:53:01;15.70;99.20
62259;DHT22;48241;48.824;10.102;2022-10-16T04:55:27;15.60;99.70
62259;DHT22;48241;48.824;10.102;2022-10-16T04:57:53;15.70;99.20
62259;DHT22;48241;48.824;10.102;2022-10-16T05:00:18;15.80;99.10
62259;DHT22;48241;48.824;10.102;2022-10-16T05:02:44;15.90;98.50
62259;DHT22;48241;48.824;10.102;2022-10-16T05:05:10;15.90;99.10
62259;DHT22;48241;48.824;10.102;2022-10-16T05:07:35;16.00;98.20
62259;DHT22;48241;48.824;10.102;2022-10-16T05:10:01;16.10;97.90
62259;DHT22;48241;48.824;10.102;2022-10-16T05:12:26;16.10;98.40
62259;DHT22;48241;48.824;10.102;2022-10-16T05:14:52;15.80;98.60
62259;DHT22;48241;48.824;10.102;2022-10-16T05:17:17;15.70;99.20
62259;DHT22;48241;48.824;10.102;2022-10-16T05:19:43;15.50;99.80
62259;DHT22;48241;48.824;10.102;2022-10-16T05:22:09;15.70;99.50
62259;DHT22;48241;48.824;10.102;2022-10-16T05:24:34;15.70;99.20
62259;DHT22;48241;48.824;10.102;2022-10-16T05:27:00;15.60;99.70
62259;DHT22;48241;48.824;10.102;2022-10-16T05:29:25;15.90;99.00
62259;DHT22;48241;48.824;10.102;2022-10-16T05:31:54;15.90;98.50
62259;DHT22;48241;48.824;10.102;2022-10-16T05:34:20;16.20;98.20
62259;DHT22;48241;48.824;10.102;2022-10-16T05:36:46;16.50;97.00
62259;DHT22;48241;48.824;10.102;2022-10-16T05:39:13;16.50;96.70
62259;DHT22;48241;48.824;10.102;2022-10-16T05:41:39;16.60;96.90
62259;DHT22;48241;48.824;10.102;2022-10-16T05:44:05;16.80;96.40
62259;DHT22;48241;48.824;10.102;2022-10-16T05:46:32;16.90;95.80
62259;DHT22;48241;48.824;10.102;2022-10-16T05:48:57;16.90;95.50
62259;DHT22;48241;48.824;10.102;2022-10-16T05:51:23;16.80;95.60
62259;DHT22;48241;48.824;10.102;2022-10-16T05:53:49;16.60;96.50
62259;DHT22;48241;48.824;10.102;2022-10-16T05:56:15;16.60;96.50
62259;DHT22;48241;48.824;10.102;2022-10-16T05:58:42;16.60;96.30
62259;DHT22;48241;48.824;10.102;2022-10-16T06:01:12;16.70;96.30
62259;DHT22;48241;48.824;10.102;2022-10-16T06:03:38;16.80;96.20
62259;DHT22;48241;48.824;10.102;2022-10-16T06:06:11;16.70;96.30
62259;DHT22;48241;48.824;10.102;2022-10-16T06:08:37;16.70;96.00
62259;DHT22;48241;48.824;10.102;2022-10-16T06:11:05;16.50;96.60
62259;DHT22;48241;48.824;10.102;2022-10-16T06:13:31;16.50;96.50
62259;DHT22;48241;48.824;10.102;2022-10-16T06:15:58;16.40;97.20
62259;DHT22;48241;48.824;10.102;2022-10-16T06:18:25;16.30;97.60
62259;DHT22;48241;48.824;10.102;2022-10-16T06:20:51;16.40;97.30
62259;DHT22;48241;48.824;10.102;2022-10-16T06:23:17;16.60;96.60
62259;DHT22;48241;48.824;10.102;2022-10-16T06:25:42;17.30;96.00
62259;DHT22;48241;48.824;10.102;2022-10-16T06:28:08;16.90;95.50
62259;DHT22;48241;48.824;10.102;2022-10-16T06:30:33;17.00;94.80
62259;DHT22;48241;48.824;10.102;2022-10-16T06:32:59;16.90;95.10
62259;DHT22;48241;48.824;10.102;2022-10-16T06:35:25;17.00;95.30
62259;DHT22;48241;48.824;10.102;2022-10-16T06:37:52;16.80;95.40
62259;DHT22;48241;48.824;10.102;2022-10-16T06:40:18;16.90;95.50
62259;DHT22;48241;48.824;10.102;2022-10-16T06:43:02;16.90;95.70
62259;DHT22;48241;48.824;10.102;2022-10-16T06:45:28;17.00;95.70
62259;DHT22;48241;48.824;10.102;2022-10-16T06:47:53;16.90;95.40
62259;DHT22;48241;48.824;10.102;2022-10-16T06:50:19;17.40;94.80
62259;DHT22;48241;48.824;10.102;2022-10-16T06:52:44;17.30;95.30
62259;DHT22;48241;48.824;10.102;2022-10-16T06:55:10;17.40;94.90
62259;DHT22;48241;48.824;10.102;2022-10-16T06:57:39;17.70;94.00
62259;DHT22;48241;48.824;10.102;2022-10-16T07:00:10;17.90;93.50
62259;DHT22;48241;48.824;10.102;2022-10-16T07:02:42;17.80;93.30
62259;DHT22;48241;48.824;10.102;2022-10-16T07:05:11;18.00;92.90
62259;DHT22;48241;48.824;10.102;2022-10-16T07:07:39;18.00;93.00
62259;DHT22;48241;48.824;10.102;2022-10-16T07:10:05;18.10;92.50
62259;DHT22;48241;48.824;10.102;2022-10-16T07:12:30;18.10;93.10
62259;DHT22;48241;48.824;10.102;2022-10-16T07:14:56;18.70;92.20
62259;DHT22;48241;48.824;10.102;2022-10-16T07:17:21;18.70;91.30
62259;DHT22;48241;48.824;10.102;2022-10-16T07:19:47;18.50;91.40
62259;DHT22;48241;48.824;10.102;2022-10-16T07:22:12;18.70;91.70
62259;DHT22;48241;48.824;10.102;2022-10-16T07:24:38;18.40;92.10
62259;DHT22;48241;48.824;10.102;2022-10-16T07:27:04;18.20;93.30
62259;DHT22;48241;48.824;10.102;2022-10-16T07:29:29;18.10;92.90
62259;DHT22;48241;48.824;10.102;2022-10-16T07:31:55;18.10;93.80
62259;DHT22;48241;48.824;10.102;2022-10-16T07:34:20;18.20;94.20
62259;DHT22;48241;48.824;10.102;2022-10-16T07:36:50;18.20;94.10
62259;DHT22;48241;48.824;10.102;2022-10-16T07:39:22;17.90;94.70
62259;DHT22;48241;48.824;10.102;2022-10-16T07:41:57;17.90;93.90
62259;DHT22;48241;48.824;10.102;2022-10-16T07:44:26;18.10;94.00
62259;DHT22;48241;48.824;10.102;2022-10-16T07:46:52;18.30;94.30
62259;DHT22;48241;48.824;10.102;2022-10-16T07:49:20;18.40;93.40
62259;DHT22;48241;48.824;10.102;2022-10-16T07:51:46;18.10;93.80
62259;DHT22;48241;48.824;10.102;2022-10-16T07:54:18;18.10;93.90
62259;DHT22;48241;48.824;10.102;2022-10-16T07:56:46;18.00;93.80
62259;DHT22;48241;48.824;10.102;2022-10-16T07:59:12;18.00;93.70
62259;DHT22;48241;48.824;10.102;2022-10-16T08:01:40;18.20;93.20
62259;DHT22;48241;48.824;10.102;2022-10-16T08:04:10;18.10;93.80
62259;DHT22;48241;48.824;10.102;2022-10-16T08:06:40;18.40;93.20
62259;DHT22;48241;48.824;10.102;2022-10-16T08:09:24;18.40;93.10
62259;DHT22;48241;48.824;10.102;2022-10-16T08:11:52;18.50;92.70
62259;DHT22;48241;48.824;10.102;2022-10-16T08:14:18;18.80;92.00
62259;DHT22;48241;48.824;10.102;2022-10-16T08:16:49;18.90;92.50
62259;DHT22;48241;48.824;10.102;2022-10-16T08:19:15;18.90;92.10
62259;DHT22;48241;48.824;10.102;2022-10-16T08:21:41;19.30;92.00
62259;DHT22;48241;48.824;10.102;2022-10-16T08:24:06;19.80;91.00
62259;DHT22;48241;48.824;10.102;2022-10-16T08:26:35;20.30;89.80
62259;DHT22;48241;48.824;10.102;2022-10-16T08:29:00;20.60;86.20
62259;DHT22;48241;48.824;10.102;2022-10-16T08:31:29;20.80;86.60
62259;DHT22;48241;48.824;10.102;2022-10-16T08:33:55;20.90;84.80
62259;DHT22;48241;48.824;10.102;2022-10-16T08:36:20;20.80;85.80
62259;DHT22;48241;48.824;10.102;2022-10-16T08:38:50;20.60;87.50
62259;DHT22;48241;48.824;10.102;2022-10-16T08:41:56;20.20;87.30
62259;DHT22;48241;48.824;10.102;2022-10-16T08:49:42;21.10;83.20
62259;DHT22;48241;48.824;10.102;2022-10-16T08:52:12;20.40;86.80
62259;DHT22;48241;48.824;10.102;2022-10-16T08:54:42;20.10;88.50
62259;DHT22;48241;48.824;10.102;2022-10-16T08:57:21;19.70;88.80
62259;DHT22;48241;48.824;10.102;2022-10-16T08:59:47;19.90;89.20
62259;DHT22;48241;48.824;10.102;2022-10-16T09:02:40;19.90;89.30
62259;DHT22;48241;48.824;10.102;2022-10-16T09:08:20;19.90;89.20
62259;DHT22;48241;48.824;10.102;2022-10-16T09:19:09;20.60;87.50
62259;DHT22;48241;48.824;10.102;2022-10-16T09:21:41;21.00;87.30
62259;DHT22;48241;48.824;10.102;2022-10-16T09:24:17;21.40;84.20
62259;DHT22;48241;48.824;10.102;2022-10-16T09:26:44;21.20;85.20
62259;DHT22;48241;48.824;10.102;2022-10-16T09:29:13;21.20;84.90
62259;DHT22;48241;48.824;10.102;2022-10-16T09:31:39;21.00;86.40
62259;DHT22;48241;48.824;10.102;2022-10-16T09:34:08;21.30;85.40
62259;DHT22;48241;48.824;10.102;2022-10-16T09:36:41;21.50;84.00
62259;DHT22;48241;48.824;10.102;2022-10-16T09:39:09;21.60;83.50
62259;DHT22;48241;48.824;10.102;2022-10-16T09:41:41;21.60;83.00
62259;DHT22;48241;48.824;10.102;2022-10-16T09:44:23;21.80;82.30
62259;DHT22;48241;48.824;10.102;2022-10-16T09:47:04;21.70;83.60
62259;DHT22;48241;48.824;10.102;2022-10-16T09:49:30;21.90;83.50
62259;DHT22;48241;48.824;10.102;2022-10-16T09:52:14;21.80;81.80
62259;DHT22;48241;48.824;10.102;2022-10-16T09:55:14;21.70;82.30
62259;DHT22;48241;48.824;10.102;2022-10-16T09:57:54;21.60;82.30
62259;DHT22;48241;48.824;10.102;2022-10-16T10:00:21;21.30;83.20
62259;DHT22;48241;48.824;10.102;2022-10-16T10:02:47;21.20;84.40
62259;DHT22;48241;48.824;10.102;2022-10-16T10:05:27;21.20;85.00
62259;DHT22;48241;48.824;10.102;2022-10-16T10:07:56;21.70;83.50
62259;DHT22;48241;48.824;10.102;2022-10-16T10:10:27;21.70;84.00
62259;DHT22;48241;48.824;10.102;2022-10-16T10:12:54;21.70;81.80
62259;DHT22;48241;48.824;10.102;2022-10-16T10:15:21;22.00;83.80
62259;DHT22;48241;48.824;10.102;2022-10-16T10:17:51;22.10;83.20
62259;DHT22;48241;48.824;10.102;2022-10-16T10:20:30;22.40;80.50
62259;DHT22;48241;48.824;10.102;2022-10-16T10:22:58;22.90;80.60
62259;DHT22;48241;48.824;10.102;2022-10-16T10:33:57;22.70;79.90
62259;DHT22;48241;48.824;10.102;2022-10-16T10:36:38;23.40;78.80
62259;DHT22;48241;48.824;10.102;2022-10-16T10:39:17;23.80;76.90
62259;DHT22;48241;48.824;10.102;2022-10-16T10:44:26;23.70;76.80
62259;DHT22;48241;48.824;10.102;2022-10-16T10:46:57;23.00;76.60
62259;DHT22;48241;48.824;10.102;2022-10-16T10:49:46;23.30;77.20
62259;DHT22;48241;48.824;10.102;2022-10-16T10:52:44;23.80;74.90
62259;DHT22;48241;48.824;10.102;2022-10-16T10:55:31;23.90;75.80
62259;DHT22;48241;48.824;10.102;2022-10-16T11:06:43;23.80;74.40
62259;DHT22;48241;48.824;10.102;2022-10-16T11:09:16;22.90;76.80
62259;DHT22;48241;48.824;10.102;2022-10-16T11:11:53;23.20;78.50
62259;DHT22;48241;48.824;10.102;2022-10-16T11:14:23;23.70;74.80
62259;DHT22;48241;48.824;10.102;2022-10-16T11:17:03;23.50;75.60
62259;DHT22;48241;48.824;10.102;2022-10-16T11:19:46;23.80;76.10
62259;DHT22;48241;48.824;10.102;2022-10-16T11:22:25;23.90;72.90
62259;DHT22;48241;48.824;10.102;2022-10-16T11:30:26;23.80;73.50
62259;DHT22;48241;48.824;10.102;2022-10-16T11:46:42;23.20;78.30
62259;DHT22;48241;48.824;10.102;2022-10-16T11:49:21;23.00;82.20
62259;DHT22;48241;48.824;10.102;2022-10-16T11:52:03;22.90;82.50
62259;DHT22;48241;48.824;10.102;2022-10-16T11:54:56;22.80;82.90
62259;DHT22;48241;48.824;10.102;2022-10-16T11:57:27;22.80;84.50
62259;DHT22;48241;48.824;10.102;2022-10-16T11:59:58;22.80;84.70
62259;DHT22;48241;48.824;10.102;2022-10-16T12:05:24;22.60;82.80
62259;DHT22;48241;48.824;10.102;2022-10-16T12:08:11;22.60;85.30
62259;DHT22;48241;48.824;10.102;2022-10-16T12:10:38;22.60;85.90
62259;DHT22;48241;48.824;10.102;2022-10-16T12:18:40;22.80;83.90
62259;DHT22;48241;48.824;10.102;2022-10-16T12:21:06;22.60;83.60
62259;DHT22;48241;48.824;10.102;2022-10-16T12:23:37;22.70;83.70
62259;DHT22;48241;48.824;10.102;2022-10-16T12:26:03;22.60;84.20
62259;DHT22;48241;48.824;10.102;2022-10-16T12:28:31;22.50;83.30
62259;DHT22;48241;48.824;10.102;2022-10-16T12:31:07;22.60;82.00
62259;DHT22;48241;48.824;10.102;2022-10-16T12:33:37;22.80;82.10
62259;DHT22;48241;48.824;10.102;2022-10-16T12:36:15;22.90;83.00
62259;DHT22;48241;48.824;10.102;2022-10-16T12:38:49;22.90;83.00
62259;DHT22;48241;48.824;10.102;2022-10-16T12:43:51;23.30;81.80
62259;DHT22;48241;48.824;10.102;2022-10-16T12:48:44;23.10;81.60
62259;DHT22;48241;48.824;10.102;2022-10-16T12:51:32;23.20;81.80
62259;DHT22;48241;48.824;10.102;2022-10-16T12:59:38;22.90;82.20
62259;DHT22;48241;48.824;10.102;2022-10-16T13:05:12;22.70;82.50
62259;DHT22;48241;48.824;10.102;2022-10-16T13:15:22;22.30;83.80
62259;DHT22;48241;48.824;10.102;2022-10-16T13:23:25;21.90;84.40
62259;DHT22;48241;48.824;10.102;2022-10-16T13:28:51;21.60;85.40
62259;DHT22;48241;48.824;10.102;2022-10-16T13:31:20;21.50;87.70
62259;DHT22;48241;48.824;10.102;2022-10-16T13:33:50;21.60;86.60
62259;DHT22;48241;48.824;10.102;2022-10-16T13:36:26;21.70;87.70
62259;DHT22;48241;48.824;10.102;2022-10-16T13:39:14;21.90;85.80
62259;DHT22;48241;48.824;10.102;2022-10-16T13:41:42;22.20;83.60
62259;DHT22;48241;48.824;10.102;2022-10-16T13:44:15;22.50;84.00
62259;DHT22;48241;48.824;10.102;2022-10-16T13:46:42;22.80;83.80
62259;DHT22;48241;48.824;10.102;2022-10-16T13:49:16;22.90;83.60
62259;DHT22;48241;48.824;10.102;2022-10-16T13:51:57;22.90;83.50
62259;DHT22;48241;48.824;10.102;2022-10-16T13:54:24;22.90;83.70
62259;DHT22;48241;48.824;10.102;2022-10-16T13:56:49;23.00;84.10
62259;DHT22;48241;48.824;10.102;2022-10-16T13:59:26;23.00;83.10
62259;DHT22;48241;48.824;10.102;2022-10-16T14:01:56;23.00;83.20
62259;DHT22;48241;48.824;10.102;2022-10-16T14:04:23;22.90;83.10
62259;DHT22;48241;48.824;10.102;2022-10-16T14:06:51;22.80;84.10
62259;DHT22;48241;48.824;10.102;2022-10-16T14:09:30;22.80;85.40
62259;DHT22;48241;48.824;10.102;2022-10-16T14:12:17;22.80;84.60
62259;DHT22;48241;48.824;10.102;2022-10-16T14:14:51;22.90;84.40
62259;DHT22;48241;48.824;10.102;2022-10-16T14:17:26;23.00;82.40
62259;DHT22;48241;48.824;10.102;2022-10-16T14:19:55;23.10;81.80
62259;DHT22;48241;48.824;10.102;2022-10-16T14:22:39;23.40;81.80
62259;DHT22;48241;48.824;10.102;2022-10-16T14:27:59;23.50;80.10
62259;DHT22;48241;48.824;10.102;2022-10-16T14:30:25;23.60;79.50
62259;DHT22;48241;48.824;10.102;2022-10-16T14:33:03;23.40;81.50
62259;DHT22;48241;48.824;10.102;2022-10-16T14:37:59;22.50;85.30
62259;DHT22;48241;48.824;10.102;2022-10-16T14:40:30;22.10;88.60
62259;DHT22;48241;48.824;10.102;2022-10-16T14:42:57;22.00;89.40
62259;DHT22;48241;48.824;10.102;2022-10-16T14:45:27;22.00;90.00
62259;DHT22;48241;48.824;10.102;2022-10-16T14:48:05;21.90;90.60
62259;DHT22;48241;48.824;10.102;2022-10-16T14:50:31;21.90;90.70
62259;DHT22;48241;48.824;10.102;2022-10-16T14:52:58;21.70;91.00
62259;DHT22;48241;48.824;10.102;2022-10-16T14:55:24;21.80;91.00
62259;DHT22;48241;48.824;10.102;2022-10-16T14:57:50;21.80;90.80
62259;DHT22;48241;48.824;10.102;2022-10-16T15:00:22;21.70;90.90
62259;DHT22;48241;48.824;10.102;2022-10-16T15:02:49;21.60;90.50
62259;DHT22;48241;48.824;10.102;2022-10-16T15:05:25;21.40;91.00
62259;DHT22;48241;48.824;10.102;2022-10-16T15:07:55;21.20;91.10
62259;DHT22;48241;48.824;10.102;2022-10-16T15:10:22;21.00;91.50
62259;DHT22;48241;48.824;10.102;2022-10-16T15:12:48;20.80;92.20
62259;DHT22;48241;48.824;10.102;2022-10-16T15:17:57;20.90;92.70
62259;DHT22;48241;48.824;10.102;2022-10-16T15:20:34;20.90;92.90
62259;DHT22;48241;48.824;10.102;2022-10-16T15:23:06;20.80;93.60
62259;DHT22;48241;48.824;10.102;2022-10-16T15:25:37;20.80;93.50
62259;DHT22;48241;48.824;10.102;2022-10-16T15:28:05;20.80;93.80
62259;DHT22;48241;48.824;10.102;2022-10-16T15:30:31;20.80;93.50
62259;DHT22;48241;48.824;10.102;2022-10-16T15:32:56;20.90;93.40
62259;DHT22;48241;48.824;10.102;2022-10-16T15:35:22;20.90;93.60
62259;DHT22;48241;48.824;10.102;2022-10-16T15:37:48;20.80;94.00
62259;DHT22;48241;48.824;10.102;2022-10-16T15:40:14;20.70;91.40
62259;DHT22;48241;48.824;10.102;2022-10-16T15:50:24;20.80;93.50
62259;DHT22;48241;48.824;10.102;2022-10-16T15:52:50;20.70;93.90
62259;DHT22;48241;48.824;10.102;2022-10-16T15:55:16;20.70;93.90
62259;DHT22;48241;48.824;10.102;2022-10-16T15:57:44;20.60;94.20
62259;DHT22;48241;48.824;10.102;2022-10-16T16:00:16;20.50;94.30
62259;DHT22;48241;48.824;10.102;2022-10-16T16:02:43;20.50;93.90
62259;DHT22;48241;48.824;10.102;2022-10-16T16:05:10;20.30;90.70
62259;DHT22;48241;48.824;10.102;2022-10-16T16:07:38;20.20;94.30
62259;DHT22;48241;48.824;10.102;2022-10-16T16:10:06;20.30;93.50
62259;DHT22;48241;48.824;10.102;2022-10-16T16:12:32;20.10;92.80
62259;DHT22;48241;48.824;10.102;2022-10-16T16:14:58;20.10;93.20
62259;DHT22;48241;48.824;10.102;2022-10-16T16:17:24;20.10;91.60
62259;DHT22;48241;48.824;10.102;2022-10-16T16:19:50;20.20;91.20
62259;DHT22;48241;48.824;10.102;2022-10-16T16:22:16;20.30;91.00
62259;DHT22;48241;48.824;10.102;2022-10-16T16:24:42;20.20;90.20
62259;DHT22;48241;48.824;10.102;2022-10-16T16:27:09;20.30;91.00
62259;DHT22;48241;48.824;10.102;2022-10-16T16:29:35;20.30;90.10
62259;DHT22;48241;48.824;10.102;2022-10-16T16:32:01;20.40;90.70
62259;DHT22;48241;48.824;10.102;2022-10-16T16:34:27;20.20;93.00
62259;DHT22;48241;48.824;10.102;2022-10-16T16:36:54;20.10;92.60
62259;DHT22;48241;48.824;10.102;2022-10-16T16:39:20;19.90;91.60
62259;DHT22;48241;48.824;10.102;2022-10-16T16:41:46;20.00;91.20
62259;DHT22;48241;48.824;10.102;2022-10-16T16:44:13;20.00;90.00
62259;DHT22;48241;48.824;10.102;2022-10-16T16:46:39;19.90;92.10
62259;DHT22;48241;48.824;10.102;2022-10-16T16:49:06;19.90;90.70
62259;DHT22;48241;48.824;10.102;2022-10-16T16:51:32;20.00;90.10
62259;DHT22;48241;48.824;10.102;2022-10-16T16:53:58;20.00;91.30
62259;DHT22;48241;48.824;10.102;2022-10-16T16:56:25;20.00;91.30
62259;DHT22;48241;48.824;10.102;2022-10-16T16:58:53;20.00;90.60
62259;DHT22;48241;48.824;10.102;2022-10-16T17:01:20;20.10;91.90
62259;DHT22;48241;48.824;10.102;2022-10-16T17:03:48;20.10;91.20
62259;DHT22;48241;48.824;10.102;2022-10-16T17:06:14;20.00;92.10
62259;DHT22;48241;48.824;10.102;2022-10-16T17:08:40;19.90;92.30
62259;DHT22;48241;48.824;10.102;2022-10-16T17:11:15;19.90;92.10
62259;DHT22;48241;48.824;10.102;2022-10-16T17:13:42;19.90;92.60
62259;DHT22;48241;48.824;10.102;2022-10-16T17:16:08;19.80;91.60
62259;DHT22;48241;48.824;10.102;2022-10-16T17:18:34;19.80;91.20
62259;DHT22;48241;48.824;10.102;2022-10-16T17:21:01;19.90;92.30
62259;DHT22;48241;48.824;10.102;2022-10-16T17:23:28;19.70;92.40
62259;DHT22;48241;48.824;10.102;2022-10-16T17:25:54;19.70;91.30
62259;DHT22;48241;48.824;10.102;2022-10-16T17:28:20;19.80;92.00
62259;DHT22;48241;48.824;10.102;2022-10-16T17:30:45;19.90;92.30
62259;DHT22;48241;48.824;10.102;2022-10-16T17:33:12;19.80;92.70
62259;DHT22;48241;48.824;10.102;2022-10-16T17:35:43;19.80;92.20